Time;durP1;ratioP1;P1;durP2;ratioP2;P2;SDS_P1;SDS_P2;PMS_P1;PMS_P2;Temp;Humidity;BMP_temperature;BMP_pressure;BME280_temperature;BME280_humidity;BME280_pressure;Samples;Min_cycle;Max_cycle;Signal;HPM_P1;HPM_P2
2021/12/06 00:01:33;;;;;;;21.60;14.63;;;3.10;99.90;;;;;;4977085;28;20029;-80
2021/12/06 00:04:03;;;;;;;21.38;14.27;;;3.10;99.90;;;;;;5002705;28;20044;-80
2021/12/06 00:06:29;;;;;;;21.30;15.18;;;3.10;99.90;;;;;;5004326;28;20112;-79
2021/12/06 00:08:55;;;;;;;21.63;14.52;;;3.10;99.90;;;;;;4990873;28;20073;-80
2021/12/06 00:11:20;;;;;;;24.65;15.20;;;3.10;99.90;;;;;;4976066;28;20060;-80
2021/12/06 00:13:46;;;;;;;23.42;15.02;;;3.10;99.90;;;;;;5005187;28;20038;-80
2021/12/06 00:16:17;;;;;;;17.63;12.13;;;3.10;99.90;;;;;;4992755;28;20083;-80
2021/12/06 00:18:42;;;;;;;23.60;14.85;;;3.10;99.90;;;;;;4978745;28;20041;-80
2021/12/06 00:21:08;;;;;;;23.15;15.27;;;3.10;99.90;;;;;;5007612;28;20704;-80
2021/12/06 00:23:34;;;;;;;25.10;14.77;;;3.00;99.90;;;;;;4987492;28;20030;-79
2021/12/06 00:25:59;;;;;;;20.88;15.00;;;3.00;99.90;;;;;;4974320;28;20029;-80
2021/12/06 00:28:25;;;;;;;25.75;14.63;;;3.00;99.90;;;;;;4985891;28;20151;-80
2021/12/06 00:30:51;;;;;;;20.65;13.43;;;2.90;99.90;;;;;;5001862;28;20037;-80
2021/12/06 00:33:17;;;;;;;21.38;13.27;;;2.90;99.90;;;;;;4988133;28;20033;-80
2021/12/06 00:35:43;;;;;;;29.80;14.40;;;2.80;99.90;;;;;;4985493;28;20030;-80
2021/12/06 00:38:09;;;;;;;21.60;13.52;;;2.80;99.90;;;;;;4993425;28;20544;-80
2021/12/06 00:40:44;;;;;;;22.17;13.93;;;2.80;99.90;;;;;;4991293;28;20041;-80
2021/12/06 00:43:09;;;;;;;18.63;13.13;;;2.70;99.90;;;;;;5009923;28;20044;-80
2021/12/06 00:45:35;;;;;;;19.45;14.18;;;2.60;99.90;;;;;;4991360;28;20037;-80
2021/12/06 00:48:00;;;;;;;21.27;13.93;;;2.50;99.90;;;;;;4975334;28;20052;-80
2021/12/06 00:50:27;;;;;;;23.15;14.18;;;2.40;99.90;;;;;;4975657;28;20029;-80
2021/12/06 00:52:53;;;;;;;17.10;10.68;;;2.40;99.90;;;;;;5006596;28;20064;-79
2021/12/06 00:55:18;;;;;;;19.45;13.20;;;2.40;99.90;;;;;;4988864;28;20493;-80
2021/12/06 00:57:44;;;;;;;18.92;13.63;;;2.50;99.90;;;;;;4987961;28;20547;-80
2021/12/06 01:00:17;;;;;;;17.05;12.10;;;2.40;99.90;;;;;;4998325;28;20393;-80
2021/12/06 01:02:42;;;;;;;21.52;14.27;;;2.30;99.90;;;;;;4991834;28;20112;-80
2021/12/06 01:05:08;;;;;;;20.70;13.88;;;2.20;99.90;;;;;;5003577;28;20118;-80
2021/12/06 01:07:34;;;;;;;19.92;13.05;;;2.10;99.90;;;;;;4969039;28;20022;-80
2021/12/06 01:09:59;;;;;;;24.13;15.23;;;2.00;99.90;;;;;;5000654;28;20041;-80
2021/12/06 01:12:25;;;;;;;27.98;15.75;;;1.90;99.90;;;;;;4988121;28;20441;-80
2021/12/06 01:14:50;;;;;;;26.33;15.60;;;1.90;99.90;;;;;;4983805;28;20567;-80
2021/12/06 01:17:16;;;;;;;23.52;16.25;;;1.90;99.90;;;;;;4983970;28;20025;-79
2021/12/06 01:19:41;;;;;;;25.35;15.73;;;1.90;99.90;;;;;;4990438;28;20037;-80
2021/12/06 01:24:57;;;;;;;22.60;14.07;;;1.80;99.90;;;;;;5002556;28;20047;-80
2021/12/06 01:27:40;;;;;;;19.08;13.40;;;1.60;99.90;;;;;;5003413;28;20032;-79
2021/12/06 01:40:54;;;;;;;22.27;13.77;;;1.30;99.90;;;;;;4997639;28;20520;-80
2021/12/06 01:43:19;;;;;;;26.90;16.17;;;1.30;99.90;;;;;;4973512;28;20033;-80
2021/12/06 01:45:45;;;;;;;23.42;15.15;;;1.30;99.90;;;;;;4989941;28;20427;-80
2021/12/06 01:48:11;;;;;;;24.85;15.25;;;1.20;99.90;;;;;;4989322;28;20113;-80
2021/12/06 01:50:38;;;;;;;21.58;15.23;;;1.20;99.90;;;;;;4998381;28;20564;-80
2021/12/06 01:53:03;;;;;;;25.73;15.38;;;1.20;99.90;;;;;;4999445;28;20092;-80
2021/12/06 01:55:36;;;;;;;29.75;15.38;;;1.10;99.90;;;;;;4987352;28;20025;-80
2021/12/06 01:58:03;;;;;;;22.48;16.15;;;1.10;99.90;;;;;;4985316;28;20030;-80
2021/12/06 02:00:41;;;;;;;25.05;14.65;;;1.20;99.90;;;;;;4990033;28;20489;-80
2021/12/06 02:03:06;;;;;;;26.17;15.98;;;1.10;99.90;;;;;;4972245;28;20035;-80
2021/12/06 02:05:32;;;;;;;25.30;16.25;;;1.10;99.90;;;;;;4991539;28;20037;-80
2021/12/06 02:07:58;;;;;;;24.63;15.25;;;1.10;99.90;;;;;;4999309;28;20025;-80
2021/12/06 02:10:24;;;;;;;23.92;15.98;;;1.00;99.90;;;;;;4969561;28;20491;-80
2021/12/06 02:12:52;;;;;;;20.13;14.68;;;0.90;99.90;;;;;;4971757;28;20040;-79
2021/12/06 02:20:57;;;;;;;24.20;14.73;;;0.80;99.90;;;;;;4977286;28;20036;-80
2021/12/06 02:23:23;;;;;;;20.95;15.07;;;0.80;99.90;;;;;;4978144;28;20433;-80
2021/12/06 02:25:48;;;;;;;26.67;15.07;;;0.70;99.90;;;;;;4997023;28;20079;-80
2021/12/06 02:28:14;;;;;;;21.02;14.60;;;0.60;99.90;;;;;;4975871;28;20041;-80
2021/12/06 02:30:39;;;;;;;20.25;13.70;;;0.60;99.90;;;;;;5003788;28;20125;-80
2021/12/06 02:33:05;;;;;;;23.75;14.05;;;0.60;99.90;;;;;;4984026;28;20112;-79
2021/12/06 02:35:31;;;;;;;23.55;14.55;;;0.50;99.90;;;;;;4986463;28;20408;-80
2021/12/06 02:37:56;;;;;;;24.45;14.52;;;0.60;99.90;;;;;;4995969;28;20028;-80
2021/12/06 02:40:27;;;;;;;20.67;12.82;;;0.60;99.90;;;;;;4978255;28;20397;-79
2021/12/06 02:42:52;;;;;;;19.45;12.70;;;0.60;99.90;;;;;;4974423;28;20120;-79
2021/12/06 02:45:20;;;;;;;19.48;12.73;;;0.70;99.90;;;;;;4975475;28;20116;-79
2021/12/06 02:47:52;;;;;;;16.73;11.50;;;0.70;99.90;;;;;;4975938;28;20053;-79
2021/12/06 02:50:18;;;;;;;13.18;8.93;;;0.70;99.90;;;;;;4975105;28;20143;-79
2021/12/06 02:52:43;;;;;;;13.88;9.93;;;0.80;99.90;;;;;;4994278;28;20064;-79
2021/12/06 02:55:27;;;;;;;18.60;11.40;;;0.80;99.90;;;;;;4990181;28;20153;-79
2021/12/06 02:57:56;;;;;;;29.65;10.10;;;0.80;99.90;;;;;;5007707;28;20036;-79
2021/12/06 03:00:22;;;;;;;51.00;10.38;;;0.70;99.90;;;;;;4974560;28;20025;-79
2021/12/06 03:02:47;;;;;;;103.75;11.77;;;0.60;99.90;;;;;;4976545;28;20035;-79
2021/12/06 03:05:13;;;;;;;13.52;8.40;;;0.60;99.90;;;;;;4978646;28;20025;-79
2021/12/06 03:07:39;;;;;;;67.28;14.80;;;0.70;99.90;;;;;;4994084;28;20030;-79
2021/12/06 03:10:07;;;;;;;67.00;11.43;;;0.80;99.90;;;;;;4979557;28;20037;-79
2021/12/06 03:12:33;;;;;;;13.88;8.98;;;0.60;99.90;;;;;;4976538;28;20029;-79
2021/12/06 03:14:59;;;;;;;47.17;10.85;;;0.60;99.90;;;;;;4976100;28;20026;-79
2021/12/06 03:17:28;;;;;;;65.45;11.02;;;0.60;99.90;;;;;;4985854;28;20057;-79
2021/12/06 03:19:53;;;;;;;77.78;12.32;;;0.50;99.90;;;;;;4988273;28;20053;-79
2021/12/06 03:22:19;;;;;;;18.10;8.55;;;0.50;99.90;;;;;;4991696;28;20056;-79
2021/12/06 03:24:45;;;;;;;11.98;8.80;;;0.40;99.90;;;;;;4970380;28;20057;-79
2021/12/06 03:27:11;;;;;;;9.57;7.60;;;0.50;99.90;;;;;;4994843;28;20095;-79
2021/12/06 03:29:38;;;;;;;33.08;10.38;;;0.50;99.90;;;;;;5008938;28;20034;-79
2021/12/06 03:32:04;;;;;;;46.28;9.90;;;0.50;99.90;;;;;;4987911;28;20109;-80
2021/12/06 03:34:29;;;;;;;29.45;8.40;;;0.40;99.90;;;;;;4971509;28;20040;-79
2021/12/06 03:36:56;;;;;;;47.58;9.52;;;0.40;99.90;;;;;;4994454;28;20029;-79
2021/12/06 03:39:27;;;;;;;22.38;6.78;;;0.30;99.90;;;;;;4992414;28;20037;-79
2021/12/06 03:41:59;;;;;;;64.63;10.13;;;0.30;99.90;;;;;;4992237;28;20030;-79
2021/12/06 03:44:25;;;;;;;71.00;9.05;;;0.30;99.90;;;;;;4976418;28;20049;-79
2021/12/06 03:46:53;;;;;;;75.68;10.25;;;0.20;99.90;;;;;;4987929;28;20030;-79
2021/12/06 03:49:19;;;;;;;94.05;9.40;;;0.10;99.90;;;;;;5009048;28;20033;-79
2021/12/06 03:51:45;;;;;;;8.20;6.07;;;0.10;99.90;;;;;;4989242;28;20556;-83
2021/12/06 03:54:12;;;;;;;15.05;6.10;;;0.10;99.90;;;;;;4993224;28;20045;-83
2021/12/06 03:56:39;;;;;;;7.97;6.07;;;0.10;99.90;;;;;;4994729;28;20034;-82
2021/12/06 03:59:04;;;;;;;9.27;6.65;;;0.20;99.90;;;;;;4989356;28;20397;-82
2021/12/06 04:01:31;;;;;;;12.05;7.03;;;0.20;99.90;;;;;;5004963;28;20030;-79
2021/12/06 04:03:57;;;;;;;30.58;8.55;;;0.10;99.90;;;;;;5004208;28;20033;-79
2021/12/06 04:06:23;;;;;;;24.35;7.63;;;0.00;99.90;;;;;;4975143;28;20033;-79
2021/12/06 04:08:49;;;;;;;35.88;7.70;;;0.00;99.90;;;;;;5008642;28;20079;-79
2021/12/06 04:11:15;;;;;;;21.88;6.93;;;-0.10;99.90;;;;;;4979419;28;20045;-79
2021/12/06 04:13:40;;;;;;;30.02;7.47;;;-0.10;99.90;;;;;;4991023;28;20568;-79
2021/12/06 04:16:07;;;;;;;18.92;8.30;;;-0.20;99.90;;;;;;4991116;28;20054;-79
2021/12/06 04:18:33;;;;;;;46.85;8.48;;;-0.20;99.90;;;;;;4994075;28;20146;-79
2021/12/06 04:20:58;;;;;;;50.75;8.38;;;-0.20;99.90;;;;;;4990329;28;20497;-79
2021/12/06 04:23:24;;;;;;;49.85;7.65;;;-0.20;99.90;;;;;;4991179;28;20496;-79
2021/12/06 04:25:50;;;;;;;65.20;11.88;;;-0.20;99.90;;;;;;5005720;28;20063;-79
2021/12/06 04:28:18;;;;;;;78.47;9.02;;;-0.30;99.90;;;;;;4989621;28;20028;-79
2021/12/06 04:30:43;;;;;;;87.80;10.00;;;-0.30;99.90;;;;;;5004174;28;20112;-79
2021/12/06 04:33:09;;;;;;;53.17;8.20;;;-0.40;99.90;;;;;;4974143;28;20037;-79
2021/12/06 04:35:35;;;;;;;70.30;10.10;;;-0.40;99.90;;;;;;4971420;28;20022;-79
2021/12/06 04:38:00;;;;;;;20.25;7.22;;;-0.40;99.90;;;;;;4987665;28;20456;-79
2021/12/06 04:40:27;;;;;;;60.88;10.32;;;-0.40;99.90;;;;;;4969436;28;20026;-79
2021/12/06 04:42:54;;;;;;;32.08;8.05;;;-0.40;99.90;;;;;;4991690;28;20412;-79
2021/12/06 04:45:19;;;;;;;79.82;10.93;;;-0.30;99.90;;;;;;4991167;28;20490;-79
2021/12/06 04:47:45;;;;;;;57.55;9.77;;;-0.30;99.90;;;;;;4985426;28;20040;-79
2021/12/06 04:50:11;;;;;;;60.95;8.98;;;-0.40;99.90;;;;;;4987966;28;20037;-79
2021/12/06 04:52:37;;;;;;;67.43;9.77;;;-0.40;99.90;;;;;;4990752;28;20032;-78
2021/12/06 04:55:06;;;;;;;23.95;7.50;;;-0.50;99.90;;;;;;4987212;28;20034;-79
2021/12/06 04:57:38;;;;;;;49.00;10.18;;;-0.40;99.90;;;;;;4991146;28;20732;-79
2021/12/06 05:00:07;;;;;;;46.13;8.57;;;-0.50;99.90;;;;;;4969862;28;20073;-79
2021/12/06 05:02:34;;;;;;;63.45;9.27;;;-0.40;99.90;;;;;;5002897;28;20060;-79
2021/12/06 05:05:06;;;;;;;24.83;7.78;;;-0.40;99.90;;;;;;5005298;28;20611;-79
2021/12/06 05:07:34;;;;;;;22.45;7.53;;;-0.40;99.90;;;;;;4970338;28;20026;-79
2021/12/06 05:10:00;;;;;;;61.50;10.40;;;-0.10;99.90;;;;;;5009466;28;20068;-79
2021/12/06 05:12:27;;;;;;;37.15;8.32;;;-0.20;99.90;;;;;;4986587;28;20061;-79
2021/12/06 05:14:53;;;;;;;88.30;10.50;;;-0.40;99.90;;;;;;4969956;28;20038;-79
2021/12/06 05:17:19;;;;;;;102.53;10.82;;;-0.40;99.90;;;;;;4974420;28;20060;-79
2021/12/06 05:19:44;;;;;;;204.85;13.75;;;-0.40;99.90;;;;;;4974172;28;20046;-78
2021/12/06 05:22:10;;;;;;;192.10;13.63;;;-0.50;99.90;;;;;;4996443;28;20061;-79
2021/12/06 05:24:36;;;;;;;13.88;6.13;;;-0.50;99.90;;;;;;5005997;28;20128;-79
2021/12/06 05:27:04;;;;;;;121.10;11.15;;;-0.40;99.90;;;;;;5008010;28;20044;-79
2021/12/06 05:29:30;;;;;;;134.40;16.92;;;-0.40;99.90;;;;;;5000499;28;20030;-79
2021/12/06 05:31:57;;;;;;;31.75;6.93;;;-0.50;99.90;;;;;;4991450;28;20374;-79
2021/12/06 05:34:31;;;;;;;214.32;13.10;;;-0.50;99.90;;;;;;4971539;28;20091;-79
2021/12/06 05:36:57;;;;;;;130.90;11.00;;;-0.50;99.90;;;;;;4992196;28;20656;-79
2021/12/06 05:39:23;;;;;;;199.68;13.27;;;-0.50;99.90;;;;;;4973933;28;20136;-78
2021/12/06 05:41:48;;;;;;;203.73;13.35;;;-0.50;99.90;;;;;;4988109;28;20036;-79
2021/12/06 05:44:14;;;;;;;244.52;15.95;;;-0.60;99.90;;;;;;5005604;28;20025;-79
2021/12/06 05:46:40;;;;;;;327.85;19.40;;;-0.60;99.90;;;;;;4989639;28;20428;-79
2021/12/06 05:49:05;;;;;;;146.85;11.77;;;-0.70;99.90;;;;;;4996449;28;20542;-79
2021/12/06 05:51:31;;;;;;;294.90;20.05;;;-0.70;99.90;;;;;;4982109;28;20621;-79
2021/12/06 05:53:56;;;;;;;291.05;16.30;;;-0.70;99.90;;;;;;4980218;28;20116;-79
2021/12/06 05:56:22;;;;;;;271.45;15.40;;;-0.60;99.90;;;;;;4988600;28;20117;-79
2021/12/06 05:58:48;;;;;;;158.85;11.68;;;-0.70;99.90;;;;;;4973455;28;20057;-79
2021/12/06 06:01:14;;;;;;;115.32;10.57;;;-0.80;99.90;;;;;;4975824;28;20505;-79
2021/12/06 06:03:39;;;;;;;101.40;9.52;;;-0.80;99.90;;;;;;4989632;28;20040;-79
2021/12/06 06:06:05;;;;;;;15.90;5.70;;;-0.70;99.90;;;;;;4985429;28;20056;-78
2021/12/06 06:08:30;;;;;;;8.07;5.72;;;-0.70;99.90;;;;;;4972610;28;20401;-80
2021/12/06 06:10:56;;;;;;;52.08;8.50;;;-0.70;99.90;;;;;;5006807;28;20034;-78
2021/12/06 06:13:22;;;;;;;106.03;10.40;;;-0.70;99.90;;;;;;5003504;28;20033;-79
2021/12/06 06:15:50;;;;;;;239.57;14.75;;;-0.70;99.90;;;;;;4982361;28;20042;-79
2021/12/06 06:18:16;;;;;;;25.15;5.72;;;-0.80;99.90;;;;;;4975401;28;20033;-79
2021/12/06 06:20:47;;;;;;;14.55;6.13;;;-0.80;99.90;;;;;;5005856;28;20084;-79
2021/12/06 06:23:13;;;;;;;9.48;6.57;;;-0.80;99.90;;;;;;5003723;28;20057;-79
2021/12/06 06:25:39;;;;;;;59.45;8.95;;;-0.80;99.90;;;;;;4997846;28;20061;-79
2021/12/06 06:28:04;;;;;;;9.52;7.15;;;-0.70;99.90;;;;;;4971731;28;20030;-79
2021/12/06 06:30:30;;;;;;;8.73;6.80;;;-0.70;99.90;;;;;;5004920;28;20095;-79
2021/12/06 06:32:55;;;;;;;41.45;8.70;;;-0.80;99.90;;;;;;5010912;28;20037;-80
2021/12/06 06:35:22;;;;;;;7.85;5.10;;;-0.80;99.90;;;;;;4993995;28;20038;-79
2021/12/06 06:37:47;;;;;;;43.22;8.43;;;-0.70;99.90;;;;;;4977723;28;20037;-79
2021/12/06 06:40:13;;;;;;;20.77;8.45;;;-0.80;99.90;;;;;;4980318;28;20021;-79
2021/12/06 06:42:38;;;;;;;14.13;8.27;;;-0.70;99.90;;;;;;5007961;28;20116;-80
2021/12/06 06:45:05;;;;;;;46.75;10.13;;;-0.60;99.90;;;;;;4990222;28;20042;-79
2021/12/06 06:47:30;;;;;;;21.20;8.23;;;-0.70;99.90;;;;;;5022837;28;20141;-79
2021/12/06 06:49:56;;;;;;;42.30;9.93;;;-0.90;99.90;;;;;;5006773;28;20022;-79
2021/12/06 06:52:21;;;;;;;29.42;7.30;;;-1.00;99.90;;;;;;4977542;28;20101;-79
2021/12/06 06:54:47;;;;;;;55.70;10.02;;;-1.00;99.90;;;;;;4979377;28;20048;-80
2021/12/06 06:57:12;;;;;;;22.27;8.45;;;-1.10;99.90;;;;;;4980928;28;20108;-80
2021/12/06 06:59:38;;;;;;;85.03;11.32;;;-1.00;99.90;;;;;;4986170;28;20509;-79
2021/12/06 07:02:04;;;;;;;96.63;10.70;;;-1.10;99.90;;;;;;5005095;28;20030;-80
2021/12/06 07:04:29;;;;;;;92.03;10.05;;;-1.20;99.90;;;;;;4977406;28;20045;-80
2021/12/06 07:06:55;;;;;;;72.68;10.70;;;-1.30;99.90;;;;;;4978829;28;20041;-80
2021/12/06 07:09:20;;;;;;;70.93;10.73;;;-1.30;99.90;;;;;;4978072;28;20064;-80
2021/12/06 07:11:46;;;;;;;63.03;11.52;;;-1.40;99.90;;;;;;4977091;28;20739;-80
2021/12/06 07:14:15;;;;;;;87.22;12.10;;;-1.40;99.90;;;;;;4990515;28;20030;-80
2021/12/06 07:16:41;;;;;;;44.95;9.05;;;-1.40;99.90;;;;;;4998576;28;20517;-79
2021/12/06 07:19:07;;;;;;;75.47;11.18;;;-1.40;99.90;;;;;;4965964;28;20043;-79
2021/12/06 07:21:33;;;;;;;37.85;8.93;;;-1.50;99.90;;;;;;4991341;28;20025;-80
2021/12/06 07:23:59;;;;;;;31.30;8.27;;;-1.50;99.90;;;;;;4992558;28;20030;-80
2021/12/06 07:26:24;;;;;;;14.13;6.95;;;-1.60;99.90;;;;;;4993182;28;20044;-80
2021/12/06 07:28:51;;;;;;;71.15;9.20;;;-1.60;99.90;;;;;;4976228;28;20038;-80
2021/12/06 07:31:17;;;;;;;115.47;10.30;;;-1.60;99.90;;;;;;4978753;28;20052;-80
2021/12/06 07:33:46;;;;;;;121.10;14.52;;;-1.60;99.90;;;;;;4976570;28;20048;-80
2021/12/06 07:36:12;;;;;;;89.80;10.60;;;-1.60;99.90;;;;;;4976068;28;20026;-79
2021/12/06 07:38:38;;;;;;;50.17;9.35;;;-1.70;99.90;;;;;;4993371;28;20057;-80
2021/12/06 07:41:07;;;;;;;48.17;10.18;;;-1.70;99.90;;;;;;4991270;28;20124;-80
2021/12/06 07:43:33;;;;;;;14.48;8.95;;;-1.80;99.90;;;;;;4977742;28;20040;-80
2021/12/06 07:45:58;;;;;;;56.50;11.20;;;-1.90;99.90;;;;;;5006302;28;20034;-80
2021/12/06 07:48:24;;;;;;;103.80;12.98;;;-2.00;99.90;;;;;;4989407;28;20475;-80
2021/12/06 07:50:49;;;;;;;231.85;16.40;;;-2.00;99.90;;;;;;4993740;28;20100;-80
2021/12/06 07:53:15;;;;;;;106.95;11.95;;;-1.90;99.90;;;;;;4974493;28;20038;-80
2021/12/06 07:55:40;;;;;;;191.25;16.13;;;-1.80;99.90;;;;;;4994394;28;20056;-80
2021/12/06 07:58:07;;;;;;;288.80;20.33;;;-1.80;99.90;;;;;;4988456;28;20048;-80
2021/12/06 08:00:35;;;;;;;83.00;15.48;;;-1.90;99.90;;;;;;5005488;28;20026;-80
2021/12/06 08:03:01;;;;;;;69.85;14.55;;;-1.80;99.90;;;;;;4993715;28;20030;-80
2021/12/06 08:05:33;;;;;;;43.35;14.93;;;-1.80;99.90;;;;;;4990116;28;20098;-80
2021/12/06 08:08:09;;;;;;;17.48;10.02;;;-1.70;99.90;;;;;;4989455;28;20140;-80
2021/12/06 08:10:35;;;;;;;;;;;-1.60;99.90;;;;;;4991293;28;20136;-79
2021/12/06 08:13:01;;;;;;;64.82;14.57;;;-1.60;99.90;;;;;;4985925;28;20530;-80
2021/12/06 08:15:27;;;;;;;43.25;16.13;;;-1.60;99.90;;;;;;4987930;28;20026;-80
2021/12/06 08:17:52;;;;;;;29.42;14.45;;;-1.40;99.90;;;;;;4991635;28;20030;-80
2021/12/06 08:20:18;;;;;;;37.67;13.88;;;-1.50;99.90;;;;;;4971375;28;20515;-80
2021/12/06 08:22:44;;;;;;;30.35;16.17;;;-1.50;99.90;;;;;;4991535;28;20033;-80
2021/12/06 08:25:12;;;;;;;29.70;16.17;;;-1.60;99.90;;;;;;4993431;28;20025;-80
2021/12/06 08:27:37;;;;;;;36.55;20.75;;;-1.60;99.90;;;;;;4987146;28;20478;-80
2021/12/06 08:30:04;;;;;;;38.65;18.45;;;-1.60;99.90;;;;;;4976795;28;20109;-80
2021/12/06 08:32:30;;;;;;;31.90;17.20;;;-1.50;99.90;;;;;;4980089;28;20262;-80
2021/12/06 08:34:55;;;;;;;30.85;16.13;;;-1.50;99.90;;;;;;4985538;28;20554;-80
2021/12/06 08:37:21;;;;;;;32.95;15.77;;;-1.50;99.90;;;;;;4973286;28;20034;-79
2021/12/06 08:39:46;;;;;;;26.23;14.75;;;-1.30;99.90;;;;;;4990197;28;20053;-80
2021/12/06 08:42:12;;;;;;;47.25;20.83;;;-1.20;99.90;;;;;;4991103;28;20025;-80
2021/12/06 08:44:37;;;;;;;47.47;19.17;;;-1.20;99.90;;;;;;5009955;28;20037;-80
2021/12/06 08:47:04;;;;;;;79.85;22.27;;;-1.30;99.90;;;;;;4975249;28;20171;-80
2021/12/06 08:49:30;;;;;;;240.32;25.92;;;-1.20;99.90;;;;;;4992799;28;20030;-80
2021/12/06 08:51:57;;;;;;;139.85;24.52;;;-1.20;99.90;;;;;;4972215;28;20037;-80
2021/12/06 08:54:26;;;;;;;21.85;12.27;;;-1.20;99.90;;;;;;4975241;28;20512;-80
2021/12/06 08:56:52;;;;;;;30.20;11.75;;;-1.10;99.90;;;;;;4998371;28;20037;-80
2021/12/06 08:59:18;;;;;;;145.23;20.83;;;-0.90;99.90;;;;;;4977191;28;20473;-80
2021/12/06 09:01:43;;;;;;;103.38;20.10;;;-0.90;99.90;;;;;;4998571;28;20025;-80
2021/12/06 09:04:12;;;;;;;236.15;27.60;;;-0.90;99.90;;;;;;4992607;28;20132;-80
2021/12/06 09:06:38;;;;;;;431.05;37.38;;;-0.90;99.90;;;;;;4975814;28;20037;-80
2021/12/06 09:09:07;;;;;;;419.48;36.75;;;-0.90;99.90;;;;;;4976852;28;20053;-80
2021/12/06 09:11:33;;;;;;;238.40;26.67;;;-0.80;99.90;;;;;;5003456;28;20057;-80
2021/12/06 09:13:58;;;;;;;296.45;28.33;;;-0.80;99.90;;;;;;4975705;28;20470;-80
2021/12/06 09:16:24;;;;;;;214.25;26.10;;;-0.70;99.90;;;;;;4990845;28;20481;-80
2021/12/06 09:18:49;;;;;;;220.95;30.90;;;-0.60;99.90;;;;;;4985889;28;20568;-80
2021/12/06 09:21:17;;;;;;;339.17;33.45;;;-0.50;99.90;;;;;;4990182;28;20029;-80
2021/12/06 09:23:43;;;;;;;228.10;28.10;;;-0.60;99.90;;;;;;4988830;28;20509;-80
2021/12/06 09:26:08;;;;;;;219.18;27.88;;;-0.50;99.90;;;;;;4990951;28;20113;-80
2021/12/06 09:28:34;;;;;;;44.03;17.00;;;-0.40;99.90;;;;;;4992991;28;20029;-79
2021/12/06 09:31:01;;;;;;;83.20;16.70;;;-0.30;99.90;;;;;;4973559;28;20037;-79
2021/12/06 09:33:27;;;;;;;133.30;20.20;;;-0.20;99.90;;;;;;4976028;28;20048;-80
2021/12/06 09:35:58;;;;;;;211.68;28.88;;;-0.10;99.90;;;;;;4993472;28;20065;-80
2021/12/06 09:38:28;;;;;;;36.90;14.77;;;-0.10;99.90;;;;;;4989514;28;20175;-79
2021/12/06 09:40:54;;;;;;;212.40;26.40;;;0.00;99.90;;;;;;4976070;28;20056;-79
2021/12/06 09:43:19;;;;;;;100.32;18.23;;;0.10;99.90;;;;;;4969386;28;20505;-80
2021/12/06 09:45:45;;;;;;;135.23;20.02;;;0.10;99.90;;;;;;4981529;28;20124;-80
2021/12/06 09:48:14;;;;;;;59.95;16.30;;;0.10;99.90;;;;;;4973597;28;20584;-80
2021/12/06 09:50:48;;;;;;;296.80;30.48;;;0.30;99.90;;;;;;4985361;28;20497;-80
2021/12/06 09:53:16;;;;;;;266.10;30.13;;;0.30;99.90;;;;;;4988175;28;20494;-80
2021/12/06 09:55:42;;;;;;;46.25;15.38;;;0.30;99.90;;;;;;4974755;28;20032;-80
2021/12/06 09:58:08;;;;;;;32.67;14.50;;;0.30;99.90;;;;;;4973911;28;20071;-80
2021/12/06 10:00:37;;;;;;;121.35;22.33;;;0.30;99.90;;;;;;4971483;28;20034;-80
2021/12/06 10:03:03;;;;;;;102.78;22.55;;;0.30;99.90;;;;;;4994905;28;20030;-80
2021/12/06 10:05:29;;;;;;;80.13;23.48;;;0.30;99.90;;;;;;4989674;28;20511;-80
2021/12/06 10:07:58;;;;;;;70.85;23.88;;;0.30;99.90;;;;;;5006883;28;20045;-80
2021/12/06 10:10:24;;;;;;;67.40;23.42;;;0.30;99.90;;;;;;4983415;28;20029;-80
2021/12/06 10:12:52;;;;;;;261.08;36.38;;;0.40;99.90;;;;;;4990158;28;20034;-80
2021/12/06 10:15:19;;;;;;;168.60;27.80;;;0.40;99.90;;;;;;4992868;28;20030;-80
2021/12/06 10:17:44;;;;;;;275.15;31.67;;;0.40;99.90;;;;;;4991961;28;20025;-80
2021/12/06 10:20:10;;;;;;;30.42;15.05;;;0.50;99.90;;;;;;4989045;28;20033;-80
2021/12/06 10:22:36;;;;;;;46.75;19.73;;;0.50;99.90;;;;;;4991662;28;20034;-81
2021/12/06 10:25:04;;;;;;;31.42;15.43;;;0.70;99.90;;;;;;4999440;28;20048;-81
2021/12/06 10:27:29;;;;;;;46.53;19.38;;;0.70;99.90;;;;;;5005020;28;20511;-81
2021/12/06 10:30:00;;;;;;;33.58;17.52;;;0.80;99.90;;;;;;4973974;28;20025;-81
2021/12/06 10:32:28;;;;;;;129.85;24.65;;;0.90;99.90;;;;;;4975491;28;20049;-81
2021/12/06 10:34:56;;;;;;;41.60;16.50;;;1.00;99.90;;;;;;4989819;28;20130;-81
2021/12/06 10:37:46;;;;;;;111.03;23.40;;;1.10;99.90;;;;;;4989439;28;20045;-82
2021/12/06 10:40:17;;;;;;;45.03;17.15;;;1.20;99.90;;;;;;4990208;28;20037;-81
2021/12/06 10:42:44;;;;;;;35.90;18.63;;;1.20;99.90;;;;;;4991354;28;20041;-81
2021/12/06 10:45:16;;;;;;;25.70;17.10;;;1.30;99.90;;;;;;4990540;28;20080;-81
2021/12/06 10:47:41;;;;;;;30.27;17.55;;;1.30;99.90;;;;;;5005377;28;20178;-82
2021/12/06 10:50:16;;;;;;;45.05;19.08;;;1.40;99.90;;;;;;4987566;28;20055;-81
2021/12/06 10:53:08;;;;;;;62.75;21.85;;;1.40;99.90;;;;;;4984694;28;20465;-82
2021/12/06 10:55:34;;;;;;;68.95;27.83;;;1.30;99.90;;;;;;4982991;28;20130;-81
2021/12/06 10:58:05;;;;;;;35.70;20.95;;;1.50;99.90;;;;;;4974252;28;20116;-82
2021/12/06 11:00:36;;;;;;;35.78;20.85;;;1.50;99.90;;;;;;4971930;28;20375;-82
2021/12/06 11:03:02;;;;;;;26.55;16.40;;;1.70;99.90;;;;;;4986869;28;20061;-81
2021/12/06 11:05:32;;;;;;;22.77;14.82;;;1.80;99.90;;;;;;5002203;28;20064;-82
2021/12/06 11:08:21;;;;;;;29.88;19.73;;;2.00;99.90;;;;;;4970636;28;20029;-82
2021/12/06 11:10:59;;;;;;;23.60;15.18;;;2.10;99.90;;;;;;4985711;28;20026;-82
2021/12/06 11:13:30;;;;;;;24.83;15.25;;;2.30;99.90;;;;;;4982027;28;20041;-82
2021/12/06 11:16:03;;;;;;;23.77;15.35;;;2.40;99.90;;;;;;4971091;28;20034;-82
2021/12/06 11:18:32;;;;;;;23.52;14.23;;;2.60;99.90;;;;;;5006541;28;20030;-82
2021/12/06 11:20:58;;;;;;;25.60;17.88;;;2.70;99.90;;;;;;5003489;28;20489;-82
2021/12/06 11:23:24;;;;;;;19.38;13.20;;;2.70;99.90;;;;;;4978374;28;20060;-81
2021/12/06 11:26:01;;;;;;;19.40;12.82;;;2.90;99.90;;;;;;4984405;28;20041;-82
2021/12/06 11:28:30;;;;;;;24.70;16.08;;;2.90;99.90;;;;;;4980241;28;20493;-82
2021/12/06 11:31:00;;;;;;;19.17;13.38;;;3.00;99.90;;;;;;4993983;28;20041;-82
2021/12/06 11:33:30;;;;;;;24.05;16.35;;;3.10;99.90;;;;;;4649749;28;10000207;-82
2021/12/06 11:35:56;;;;;;;27.80;18.00;;;3.20;99.90;;;;;;4993813;28;20087;-82
2021/12/06 11:38:21;;;;;;;22.13;14.32;;;3.20;99.90;;;;;;4988497;28;20033;-82
2021/12/06 11:40:47;;;;;;;22.00;13.45;;;3.50;99.90;;;;;;4983716;28;20049;-82
2021/12/06 11:43:16;;;;;;;24.27;15.38;;;3.80;99.90;;;;;;5008907;28;20034;-82
2021/12/06 11:45:45;;;;;;;41.67;26.00;;;3.90;99.90;;;;;;4988850;28;20569;-82
2021/12/06 11:48:17;;;;;;;21.65;14.45;;;3.70;99.90;;;;;;5007407;28;20944;-82
2021/12/06 11:50:49;;;;;;;27.15;16.58;;;4.00;99.90;;;;;;5001908;28;20091;-82
2021/12/06 11:53:15;;;;;;;22.55;14.50;;;4.80;99.90;;;;;;4989931;28;20494;-82
2021/12/06 11:55:51;;;;;;;23.67;14.40;;;5.30;99.90;;;;;;4969318;28;20048;-82
2021/12/06 11:58:21;;;;;;;23.60;15.65;;;5.50;99.90;;;;;;4971099;28;20506;-81
2021/12/06 12:00:46;;;;;;;22.75;15.77;;;5.60;99.90;;;;;;5004372;28;20229;-82
2021/12/06 12:03:12;;;;;;;26.80;17.38;;;5.80;99.90;;;;;;4989138;28;20057;-82
2021/12/06 12:05:38;;;;;;;24.80;16.77;;;5.80;99.90;;;;;;5002309;28;20025;-82
2021/12/06 12:08:08;;;;;;;32.95;18.75;;;6.20;99.90;;;;;;4992415;28;20029;-82
2021/12/06 12:10:44;;;;;;;25.25;12.70;;;6.30;99.90;;;;;;4990748;28;20033;-82
2021/12/06 12:13:20;;;;;;;17.85;8.23;;;6.50;99.90;;;;;;5001604;28;20091;-81
2021/12/06 12:15:46;;;;;;;;;;;6.20;99.90;;;;;;4992227;28;20482;-81
2021/12/06 12:18:11;;;;;;;26.97;15.80;;;6.10;99.90;;;;;;4981065;28;19983;-82
2021/12/06 12:20:37;;;;;;;28.67;16.17;;;6.20;99.90;;;;;;4989372;28;20026;-82
2021/12/06 12:23:07;;;;;;;27.83;15.80;;;6.10;99.90;;;;;;4978239;28;20049;-82
2021/12/06 12:25:37;;;;;;;30.10;18.17;;;6.10;99.90;;;;;;4985124;28;20030;-82
2021/12/06 12:30:33;;;;;;;30.63;16.75;;;6.10;99.90;;;;;;4998941;28;20453;-82
2021/12/06 12:32:59;;;;;;;37.83;18.98;;;6.00;99.90;;;;;;4989546;28;20552;-82
2021/12/06 12:35:25;;;;;;;32.28;17.80;;;6.10;99.90;;;;;;4991279;28;20149;-82
2021/12/06 12:37:53;;;;;;;44.13;23.25;;;6.20;99.90;;;;;;4972357;28;20117;-82
2021/12/06 12:40:19;;;;;;;36.47;19.92;;;6.10;99.90;;;;;;4961544;28;20033;-82
2021/12/06 12:42:59;;;;;;;31.05;16.30;;;6.00;99.90;;;;;;4986272;28;20432;-82
2021/12/06 12:45:35;;;;;;;30.27;14.27;;;5.90;99.90;;;;;;5000675;28;20030;-82
2021/12/06 12:48:01;;;;;;;29.20;17.52;;;5.80;99.90;;;;;;4973424;28;20103;-82
2021/12/06 12:50:30;;;;;;;35.03;17.85;;;6.00;99.90;;;;;;4989323;28;20029;-82
2021/12/06 12:52:55;;;;;;;40.28;21.85;;;5.90;99.90;;;;;;4987548;28;20025;-82
2021/12/06 12:55:26;;;;;;;32.78;17.25;;;6.00;99.90;;;;;;4970636;28;20901;-82